sensor_id;sensor_type;location;lat;lon;timestamp;P1;durP1;ratioP1;P2;durP2;ratioP2
59876;SDS011;45749;51.140;17.184;2023-06-19T00:00:06;8.60;;;7.30;;
59876;SDS011;45749;51.140;17.184;2023-06-19T00:02:37;9.18;;;7.47;;
59876;SDS011;45749;51.140;17.184;2023-06-19T00:05:06;8.27;;;7.28;;
59876;SDS011;45749;51.140;17.184;2023-06-19T00:07:32;8.35;;;7.25;;
59876;SDS011;45749;51.140;17.184;2023-06-19T00:09:58;8.95;;;7.85;;
59876;SDS011;45749;51.140;17.184;2023-06-19T00:12:24;9.20;;;7.25;;
59876;SDS011;45749;51.140;17.184;2023-06-19T00:14:49;10.13;;;7.95;;
59876;SDS011;45749;51.140;17.184;2023-06-19T00:17:14;11.23;;;8.07;;
59876;SDS011;45749;51.140;17.184;2023-06-19T00:19:43;8.30;;;7.50;;
59876;SDS011;45749;51.140;17.184;2023-06-19T00:22:08;9.20;;;8.27;;
59876;SDS011;45749;51.140;17.184;2023-06-19T00:24:34;8.48;;;7.18;;
59876;SDS011;45749;51.140;17.184;2023-06-19T00:26:59;9.60;;;7.82;;
59876;SDS011;45749;51.140;17.184;2023-06-19T00:29:30;8.45;;;7.65;;
59876;SDS011;45749;51.140;17.184;2023-06-19T00:31:56;8.75;;;7.95;;
59876;SDS011;45749;51.140;17.184;2023-06-19T00:34:22;9.25;;;8.07;;
59876;SDS011;45749;51.140;17.184;2023-06-19T00:36:51;9.65;;;8.70;;
59876;SDS011;45749;51.140;17.184;2023-06-19T00:39:21;9.48;;;8.57;;
59876;SDS011;45749;51.140;17.184;2023-06-19T00:41:47;9.40;;;7.93;;
59876;SDS011;45749;51.140;17.184;2023-06-19T00:44:13;10.15;;;8.90;;
59876;SDS011;45749;51.140;17.184;2023-06-19T00:46:39;10.27;;;9.27;;
59876;SDS011;45749;51.140;17.184;2023-06-19T00:49:06;11.80;;;8.13;;
59876;SDS011;45749;51.140;17.184;2023-06-19T00:51:32;9.50;;;8.50;;
59876;SDS011;45749;51.140;17.184;2023-06-19T00:53:58;10.43;;;9.10;;
59876;SDS011;45749;51.140;17.184;2023-06-19T00:56:24;10.00;;;9.00;;
59876;SDS011;45749;51.140;17.184;2023-06-19T00:58:50;9.73;;;8.82;;
59876;SDS011;45749;51.140;17.184;2023-06-19T01:01:17;9.13;;;8.20;;
59876;SDS011;45749;51.140;17.184;2023-06-19T01:03:43;9.05;;;8.15;;
59876;SDS011;45749;51.140;17.184;2023-06-19T01:06:13;9.30;;;8.40;;
59876;SDS011;45749;51.140;17.184;2023-06-19T01:08:49;9.27;;;7.82;;
59876;SDS011;45749;51.140;17.184;2023-06-19T01:11:21;10.02;;;9.02;;
59876;SDS011;45749;51.140;17.184;2023-06-19T01:13:51;8.80;;;7.90;;
59876;SDS011;45749;51.140;17.184;2023-06-19T01:16:22;10.98;;;8.15;;
59876;SDS011;45749;51.140;17.184;2023-06-19T01:18:48;11.90;;;8.73;;
59876;SDS011;45749;51.140;17.184;2023-06-19T01:21:15;9.35;;;8.35;;
59876;SDS011;45749;51.140;17.184;2023-06-19T01:23:42;11.07;;;8.68;;
59876;SDS011;45749;51.140;17.184;2023-06-19T01:26:08;10.25;;;9.00;;
59876;SDS011;45749;51.140;17.184;2023-06-19T01:28:38;10.30;;;8.70;;
59876;SDS011;45749;51.140;17.184;2023-06-19T01:31:07;10.40;;;8.85;;
59876;SDS011;45749;51.140;17.184;2023-06-19T01:33:37;11.88;;;10.70;;
59876;SDS011;45749;51.140;17.184;2023-06-19T01:36:04;11.80;;;10.07;;
59876;SDS011;45749;51.140;17.184;2023-06-19T01:38:32;11.50;;;9.80;;
59876;SDS011;45749;51.140;17.184;2023-06-19T01:40:59;10.60;;;9.52;;
59876;SDS011;45749;51.140;17.184;2023-06-19T01:43:27;12.27;;;10.07;;
59876;SDS011;45749;51.140;17.184;2023-06-19T01:45:54;12.23;;;10.07;;
59876;SDS011;45749;51.140;17.184;2023-06-19T01:48:20;15.18;;;11.45;;
59876;SDS011;45749;51.140;17.184;2023-06-19T01:50:48;11.55;;;10.18;;
59876;SDS011;45749;51.140;17.184;2023-06-19T01:53:14;10.90;;;9.77;;
59876;SDS011;45749;51.140;17.184;2023-06-19T01:55:39;14.10;;;11.35;;
59876;SDS011;45749;51.140;17.184;2023-06-19T01:58:04;12.70;;;11.32;;
59876;SDS011;45749;51.140;17.184;2023-06-19T02:00:30;12.50;;;10.35;;
59876;SDS011;45749;51.140;17.184;2023-06-19T02:02:57;11.90;;;10.18;;
59876;SDS011;45749;51.140;17.184;2023-06-19T02:05:22;10.52;;;9.43;;
59876;SDS011;45749;51.140;17.184;2023-06-19T02:07:47;12.70;;;10.57;;
59876;SDS011;45749;51.140;17.184;2023-06-19T02:10:13;14.27;;;10.88;;
59876;SDS011;45749;51.140;17.184;2023-06-19T02:12:38;12.70;;;9.98;;
59876;SDS011;45749;51.140;17.184;2023-06-19T02:15:03;12.40;;;9.95;;
59876;SDS011;45749;51.140;17.184;2023-06-19T02:17:29;12.05;;;10.77;;
59876;SDS011;45749;51.140;17.184;2023-06-19T02:19:54;12.65;;;11.23;;
59876;SDS011;45749;51.140;17.184;2023-06-19T02:22:20;11.15;;;10.02;;
59876;SDS011;45749;51.140;17.184;2023-06-19T02:24:45;12.13;;;9.70;;
59876;SDS011;45749;51.140;17.184;2023-06-19T02:27:10;12.48;;;10.35;;
59876;SDS011;45749;51.140;17.184;2023-06-19T02:29:36;10.38;;;9.20;;
59876;SDS011;45749;51.140;17.184;2023-06-19T02:32:02;13.05;;;10.10;;
59876;SDS011;45749;51.140;17.184;2023-06-19T02:34:28;13.15;;;9.98;;
59876;SDS011;45749;51.140;17.184;2023-06-19T02:36:53;12.68;;;10.45;;
59876;SDS011;45749;51.140;17.184;2023-06-19T02:39:18;12.20;;;10.82;;
59876;SDS011;45749;51.140;17.184;2023-06-19T02:41:43;12.63;;;11.32;;
59876;SDS011;45749;51.140;17.184;2023-06-19T02:44:11;11.18;;;9.88;;
59876;SDS011;45749;51.140;17.184;2023-06-19T02:46:37;14.00;;;10.75;;
59876;SDS011;45749;51.140;17.184;2023-06-19T02:49:02;12.68;;;10.48;;
59876;SDS011;45749;51.140;17.184;2023-06-19T02:51:27;16.05;;;11.05;;
59876;SDS011;45749;51.140;17.184;2023-06-19T02:53:53;13.77;;;11.13;;
59876;SDS011;45749;51.140;17.184;2023-06-19T02:56:18;14.10;;;11.98;;
59876;SDS011;45749;51.140;17.184;2023-06-19T02:58:43;13.15;;;11.52;;
59876;SDS011;45749;51.140;17.184;2023-06-19T03:01:08;14.68;;;12.82;;
59876;SDS011;45749;51.140;17.184;2023-06-19T03:03:34;13.25;;;11.85;;
59876;SDS011;45749;51.140;17.184;2023-06-19T03:06:05;14.32;;;12.82;;
59876;SDS011;45749;51.140;17.184;2023-06-19T03:08:35;14.48;;;12.82;;
59876;SDS011;45749;51.140;17.184;2023-06-19T03:11:01;14.00;;;12.25;;
59876;SDS011;45749;51.140;17.184;2023-06-19T03:13:29;14.02;;;11.90;;
59876;SDS011;45749;51.140;17.184;2023-06-19T03:15:57;13.98;;;12.32;;
59876;SDS011;45749;51.140;17.184;2023-06-19T03:18:22;13.85;;;12.35;;
59876;SDS011;45749;51.140;17.184;2023-06-19T03:20:47;14.52;;;12.90;;
59876;SDS011;45749;51.140;17.184;2023-06-19T03:23:13;14.50;;;12.73;;
59876;SDS011;45749;51.140;17.184;2023-06-19T03:25:38;14.38;;;12.88;;
59876;SDS011;45749;51.140;17.184;2023-06-19T03:28:07;15.05;;;12.80;;
59876;SDS011;45749;51.140;17.184;2023-06-19T03:30:33;14.57;;;13.02;;
59876;SDS011;45749;51.140;17.184;2023-06-19T03:32:58;14.98;;;12.20;;
59876;SDS011;45749;51.140;17.184;2023-06-19T03:35:23;13.30;;;11.88;;
59876;SDS011;45749;51.140;17.184;2023-06-19T03:37:49;14.60;;;12.23;;
59876;SDS011;45749;51.140;17.184;2023-06-19T03:40:14;13.35;;;11.95;;
59876;SDS011;45749;51.140;17.184;2023-06-19T03:42:40;14.45;;;12.95;;
59876;SDS011;45749;51.140;17.184;2023-06-19T03:45:05;14.65;;;13.15;;
59876;SDS011;45749;51.140;17.184;2023-06-19T03:47:31;13.50;;;11.40;;
59876;SDS011;45749;51.140;17.184;2023-06-19T03:49:56;14.18;;;12.13;;
59876;SDS011;45749;51.140;17.184;2023-06-19T03:52:22;15.27;;;11.63;;
59876;SDS011;45749;51.140;17.184;2023-06-19T03:54:47;13.63;;;12.23;;
59876;SDS011;45749;51.140;17.184;2023-06-19T03:57:12;14.48;;;12.43;;
59876;SDS011;45749;51.140;17.184;2023-06-19T03:59:38;14.38;;;12.68;;
59876;SDS011;45749;51.140;17.184;2023-06-19T04:02:03;14.98;;;12.18;;
59876;SDS011;45749;51.140;17.184;2023-06-19T04:04:29;18.70;;;13.00;;
59876;SDS011;45749;51.140;17.184;2023-06-19T04:06:54;15.32;;;12.85;;
59876;SDS011;45749;51.140;17.184;2023-06-19T04:09:19;14.35;;;12.85;;
59876;SDS011;45749;51.140;17.184;2023-06-19T04:11:44;15.23;;;12.98;;
59876;SDS011;45749;51.140;17.184;2023-06-19T04:14:10;15.63;;;13.25;;
59876;SDS011;45749;51.140;17.184;2023-06-19T04:16:35;16.42;;;14.60;;
59876;SDS011;45749;51.140;17.184;2023-06-19T04:19:01;15.98;;;13.63;;
59876;SDS011;45749;51.140;17.184;2023-06-19T04:21:26;16.15;;;14.45;;
59876;SDS011;45749;51.140;17.184;2023-06-19T04:23:51;15.15;;;13.55;;
59876;SDS011;45749;51.140;17.184;2023-06-19T04:26:17;15.63;;;13.75;;
59876;SDS011;45749;51.140;17.184;2023-06-19T04:28:43;16.70;;;14.98;;
59876;SDS011;45749;51.140;17.184;2023-06-19T04:31:08;15.68;;;14.00;;
59876;SDS011;45749;51.140;17.184;2023-06-19T04:33:33;17.65;;;14.40;;
59876;SDS011;45749;51.140;17.184;2023-06-19T04:35:59;15.27;;;13.73;;
59876;SDS011;45749;51.140;17.184;2023-06-19T04:38:25;15.82;;;14.23;;
59876;SDS011;45749;51.140;17.184;2023-06-19T04:40:51;15.07;;;13.50;;
59876;SDS011;45749;51.140;17.184;2023-06-19T04:43:17;17.70;;;14.75;;
59876;SDS011;45749;51.140;17.184;2023-06-19T04:45:42;16.30;;;14.63;;
59876;SDS011;45749;51.140;17.184;2023-06-19T04:48:07;19.17;;;14.90;;
59876;SDS011;45749;51.140;17.184;2023-06-19T04:50:33;17.58;;;15.68;;
59876;SDS011;45749;51.140;17.184;2023-06-19T04:52:58;16.30;;;14.63;;
59876;SDS011;45749;51.140;17.184;2023-06-19T04:55:23;17.08;;;14.27;;
59876;SDS011;45749;51.140;17.184;2023-06-19T04:57:50;15.75;;;14.15;;
59876;SDS011;45749;51.140;17.184;2023-06-19T05:00:15;17.00;;;14.52;;
59876;SDS011;45749;51.140;17.184;2023-06-19T05:02:44;19.05;;;15.73;;
59876;SDS011;45749;51.140;17.184;2023-06-19T05:05:12;17.55;;;15.65;;
59876;SDS011;45749;51.140;17.184;2023-06-19T05:07:38;18.35;;;15.20;;
59876;SDS011;45749;51.140;17.184;2023-06-19T05:10:03;20.08;;;15.50;;
59876;SDS011;45749;51.140;17.184;2023-06-19T05:12:29;17.60;;;15.77;;
59876;SDS011;45749;51.140;17.184;2023-06-19T05:14:54;19.73;;;17.38;;
59876;SDS011;45749;51.140;17.184;2023-06-19T05:17:19;20.40;;;15.57;;
59876;SDS011;45749;51.140;17.184;2023-06-19T05:19:45;21.63;;;16.98;;
59876;SDS011;45749;51.140;17.184;2023-06-19T05:22:10;18.65;;;16.75;;
59876;SDS011;45749;51.140;17.184;2023-06-19T05:24:35;17.85;;;16.05;;
59876;SDS011;45749;51.140;17.184;2023-06-19T05:27:01;19.10;;;16.67;;
59876;SDS011;45749;51.140;17.184;2023-06-19T05:29:26;19.38;;;16.70;;
59876;SDS011;45749;51.140;17.184;2023-06-19T05:31:51;18.38;;;16.55;;
59876;SDS011;45749;51.140;17.184;2023-06-19T05:34:17;21.03;;;17.57;;
59876;SDS011;45749;51.140;17.184;2023-06-19T05:36:42;18.80;;;15.98;;
59876;SDS011;45749;51.140;17.184;2023-06-19T05:39:10;18.08;;;16.23;;
59876;SDS011;45749;51.140;17.184;2023-06-19T05:41:35;15.60;;;13.90;;
59876;SDS011;45749;51.140;17.184;2023-06-19T05:44:00;15.93;;;14.27;;
59876;SDS011;45749;51.140;17.184;2023-06-19T05:46:26;15.80;;;14.18;;
59876;SDS011;45749;51.140;17.184;2023-06-19T05:48:52;14.80;;;13.37;;
59876;SDS011;45749;51.140;17.184;2023-06-19T05:51:19;15.48;;;13.82;;
59876;SDS011;45749;51.140;17.184;2023-06-19T05:53:45;16.88;;;14.73;;
59876;SDS011;45749;51.140;17.184;2023-06-19T05:56:11;15.18;;;13.57;;
59876;SDS011;45749;51.140;17.184;2023-06-19T05:58:37;13.63;;;11.93;;
59876;SDS011;45749;51.140;17.184;2023-06-19T06:01:02;13.20;;;11.60;;
59876;SDS011;45749;51.140;17.184;2023-06-19T06:03:28;13.68;;;12.02;;
59876;SDS011;45749;51.140;17.184;2023-06-19T06:05:55;12.52;;;11.23;;
59876;SDS011;45749;51.140;17.184;2023-06-19T06:08:27;13.02;;;11.45;;
59876;SDS011;45749;51.140;17.184;2023-06-19T06:10:53;13.32;;;11.93;;
59876;SDS011;45749;51.140;17.184;2023-06-19T06:13:18;12.07;;;10.93;;
59876;SDS011;45749;51.140;17.184;2023-06-19T06:15:44;12.05;;;10.85;;
59876;SDS011;45749;51.140;17.184;2023-06-19T06:18:09;13.63;;;10.95;;
59876;SDS011;45749;51.140;17.184;2023-06-19T06:20:34;13.03;;;11.30;;
59876;SDS011;45749;51.140;17.184;2023-06-19T06:23:00;13.70;;;12.23;;
59876;SDS011;45749;51.140;17.184;2023-06-19T06:25:25;13.77;;;12.48;;
59876;SDS011;45749;51.140;17.184;2023-06-19T06:27:50;10.70;;;9.70;;
59876;SDS011;45749;51.140;17.184;2023-06-19T06:30:16;12.20;;;10.93;;
59876;SDS011;45749;51.140;17.184;2023-06-19T06:32:42;14.63;;;11.18;;
59876;SDS011;45749;51.140;17.184;2023-06-19T06:35:07;12.55;;;11.30;;
59876;SDS011;45749;51.140;17.184;2023-06-19T06:37:32;11.32;;;10.30;;
59876;SDS011;45749;51.140;17.184;2023-06-19T06:39:58;12.40;;;11.17;;
59876;SDS011;45749;51.140;17.184;2023-06-19T06:42:23;12.00;;;10.67;;
59876;SDS011;45749;51.140;17.184;2023-06-19T06:44:48;11.70;;;10.47;;
59876;SDS011;45749;51.140;17.184;2023-06-19T06:47:13;11.43;;;10.15;;
59876;SDS011;45749;51.140;17.184;2023-06-19T06:49:39;14.07;;;9.98;;
59876;SDS011;45749;51.140;17.184;2023-06-19T06:52:05;11.30;;;10.30;;
59876;SDS011;45749;51.140;17.184;2023-06-19T06:54:31;10.93;;;9.73;;
59876;SDS011;45749;51.140;17.184;2023-06-19T06:56:56;12.02;;;10.43;;
59876;SDS011;45749;51.140;17.184;2023-06-19T06:59:23;12.63;;;10.02;;
59876;SDS011;45749;51.140;17.184;2023-06-19T07:01:49;13.18;;;11.82;;
59876;SDS011;45749;51.140;17.184;2023-06-19T07:04:15;11.05;;;10.05;;
59876;SDS011;45749;51.140;17.184;2023-06-19T07:06:40;11.30;;;10.20;;
59876;SDS011;45749;51.140;17.184;2023-06-19T07:09:05;12.38;;;11.18;;
59876;SDS011;45749;51.140;17.184;2023-06-19T07:11:31;12.77;;;11.47;;
59876;SDS011;45749;51.140;17.184;2023-06-19T07:13:56;12.50;;;11.30;;
59876;SDS011;45749;51.140;17.184;2023-06-19T07:16:21;13.13;;;11.77;;
59876;SDS011;45749;51.140;17.184;2023-06-19T07:18:46;11.98;;;10.77;;
59876;SDS011;45749;51.140;17.184;2023-06-19T07:21:12;14.57;;;10.85;;
59876;SDS011;45749;51.140;17.184;2023-06-19T07:23:40;12.98;;;11.52;;
59876;SDS011;45749;51.140;17.184;2023-06-19T07:26:07;11.95;;;10.82;;
59876;SDS011;45749;51.140;17.184;2023-06-19T07:28:33;12.93;;;11.65;;
59876;SDS011;45749;51.140;17.184;2023-06-19T07:31:01;11.98;;;10.45;;
59876;SDS011;45749;51.140;17.184;2023-06-19T07:33:26;11.18;;;10.07;;
59876;SDS011;45749;51.140;17.184;2023-06-19T07:35:51;12.85;;;11.07;;
59876;SDS011;45749;51.140;17.184;2023-06-19T07:38:16;12.17;;;10.17;;
59876;SDS011;45749;51.140;17.184;2023-06-19T07:40:42;11.80;;;10.60;;
59876;SDS011;45749;51.140;17.184;2023-06-19T07:43:07;13.05;;;10.25;;
59876;SDS011;45749;51.140;17.184;2023-06-19T07:45:32;12.20;;;11.02;;
59876;SDS011;45749;51.140;17.184;2023-06-19T07:47:58;12.45;;;11.20;;
59876;SDS011;45749;51.140;17.184;2023-06-19T07:50:23;12.65;;;11.13;;
59876;SDS011;45749;51.140;17.184;2023-06-19T07:52:48;18.40;;;11.25;;
59876;SDS011;45749;51.140;17.184;2023-06-19T07:55:14;10.30;;;9.13;;
59876;SDS011;45749;51.140;17.184;2023-06-19T07:57:39;10.50;;;9.07;;
59876;SDS011;45749;51.140;17.184;2023-06-19T08:00:04;13.63;;;11.23;;
59876;SDS011;45749;51.140;17.184;2023-06-19T08:02:36;12.05;;;10.85;;
59876;SDS011;45749;51.140;17.184;2023-06-19T08:05:02;11.15;;;10.07;;
59876;SDS011;45749;51.140;17.184;2023-06-19T08:07:27;10.38;;;9.38;;
59876;SDS011;45749;51.140;17.184;2023-06-19T08:09:53;12.85;;;9.85;;
59876;SDS011;45749;51.140;17.184;2023-06-19T08:12:18;9.47;;;8.60;;
59876;SDS011;45749;51.140;17.184;2023-06-19T08:14:43;11.38;;;9.23;;
59876;SDS011;45749;51.140;17.184;2023-06-19T08:17:09;10.27;;;9.00;;
59876;SDS011;45749;51.140;17.184;2023-06-19T08:19:34;10.80;;;8.60;;
59876;SDS011;45749;51.140;17.184;2023-06-19T08:21:59;13.55;;;9.70;;
59876;SDS011;45749;51.140;17.184;2023-06-19T08:24:24;11.30;;;9.68;;
59876;SDS011;45749;51.140;17.184;2023-06-19T08:26:50;9.40;;;8.50;;
59876;SDS011;45749;51.140;17.184;2023-06-19T08:29:16;9.40;;;8.50;;
59876;SDS011;45749;51.140;17.184;2023-06-19T08:31:43;11.65;;;9.98;;
59876;SDS011;45749;51.140;17.184;2023-06-19T08:34:08;9.88;;;8.80;;
59876;SDS011;45749;51.140;17.184;2023-06-19T08:36:35;8.93;;;8.10;;
59876;SDS011;45749;51.140;17.184;2023-06-19T08:39:00;10.35;;;7.85;;
59876;SDS011;45749;51.140;17.184;2023-06-19T08:41:26;8.93;;;7.35;;
59876;SDS011;45749;51.140;17.184;2023-06-19T08:43:52;8.40;;;7.53;;
59876;SDS011;45749;51.140;17.184;2023-06-19T08:46:18;11.13;;;7.00;;
59876;SDS011;45749;51.140;17.184;2023-06-19T08:48:44;8.63;;;7.80;;
59876;SDS011;45749;51.140;17.184;2023-06-19T08:51:10;9.70;;;7.38;;
59876;SDS011;45749;51.140;17.184;2023-06-19T08:53:36;7.95;;;7.15;;
59876;SDS011;45749;51.140;17.184;2023-06-19T08:56:09;6.90;;;6.22;;
59876;SDS011;45749;51.140;17.184;2023-06-19T08:58:35;9.77;;;6.05;;
59876;SDS011;45749;51.140;17.184;2023-06-19T09:01:01;6.25;;;5.60;;
59876;SDS011;45749;51.140;17.184;2023-06-19T09:03:27;7.97;;;6.47;;
59876;SDS011;45749;51.140;17.184;2023-06-19T09:05:52;7.88;;;6.78;;
59876;SDS011;45749;51.140;17.184;2023-06-19T09:08:21;11.52;;;7.30;;
59876;SDS011;45749;51.140;17.184;2023-06-19T09:11:03;8.93;;;7.43;;
59876;SDS011;45749;51.140;17.184;2023-06-19T09:13:29;9.10;;;6.72;;
59876;SDS011;45749;51.140;17.184;2023-06-19T09:18:25;6.95;;;6.18;;
59876;SDS011;45749;51.140;17.184;2023-06-19T09:20:52;7.65;;;6.88;;
59876;SDS011;45749;51.140;17.184;2023-06-19T09:23:18;7.75;;;6.95;;
59876;SDS011;45749;51.140;17.184;2023-06-19T09:25:48;7.80;;;6.82;;
59876;SDS011;45749;51.140;17.184;2023-06-19T09:28:22;9.88;;;5.90;;
59876;SDS011;45749;51.140;17.184;2023-06-19T09:30:59;5.95;;;5.35;;
59876;SDS011;45749;51.140;17.184;2023-06-19T09:33:27;6.65;;;5.32;;
59876;SDS011;45749;51.140;17.184;2023-06-19T09:35:54;9.38;;;6.15;;
59876;SDS011;45749;51.140;17.184;2023-06-19T09:38:24;8.52;;;5.20;;
59876;SDS011;45749;51.140;17.184;2023-06-19T09:41:10;6.80;;;4.43;;
59876;SDS011;45749;51.140;17.184;2023-06-19T09:43:37;6.00;;;4.90;;
59876;SDS011;45749;51.140;17.184;2023-06-19T09:46:04;4.70;;;4.30;;
59876;SDS011;45749;51.140;17.184;2023-06-19T09:48:31;5.68;;;4.40;;
59876;SDS011;45749;51.140;17.184;2023-06-19T09:51:01;5.13;;;4.43;;
59876;SDS011;45749;51.140;17.184;2023-06-19T09:53:34;4.50;;;3.95;;
59876;SDS011;45749;51.140;17.184;2023-06-19T09:56:00;5.30;;;4.80;;
59876;SDS011;45749;51.140;17.184;2023-06-19T09:58:25;6.63;;;4.68;;
59876;SDS011;45749;51.140;17.184;2023-06-19T10:00:53;5.50;;;5.00;;
59876;SDS011;45749;51.140;17.184;2023-06-19T10:03:20;6.53;;;4.43;;
59876;SDS011;45749;51.140;17.184;2023-06-19T10:05:45;5.00;;;3.92;;
59876;SDS011;45749;51.140;17.184;2023-06-19T10:08:11;5.72;;;5.22;;
59876;SDS011;45749;51.140;17.184;2023-06-19T10:10:45;5.82;;;4.90;;
59876;SDS011;45749;51.140;17.184;2023-06-19T10:13:13;5.40;;;4.93;;
59876;SDS011;45749;51.140;17.184;2023-06-19T10:15:40;5.63;;;4.43;;
59876;SDS011;45749;51.140;17.184;2023-06-19T10:18:08;5.90;;;4.13;;
59876;SDS011;45749;51.140;17.184;2023-06-19T10:20:37;5.53;;;4.28;;
59876;SDS011;45749;51.140;17.184;2023-06-19T10:23:11;5.40;;;4.90;;
59876;SDS011;45749;51.140;17.184;2023-06-19T10:25:44;5.95;;;5.45;;
59876;SDS011;45749;51.140;17.184;2023-06-19T10:28:23;5.82;;;5.32;;
59876;SDS011;45749;51.140;17.184;2023-06-19T10:33:27;6.57;;;4.63;;
59876;SDS011;45749;51.140;17.184;2023-06-19T10:35:53;4.75;;;4.35;;
59876;SDS011;45749;51.140;17.184;2023-06-19T10:38:19;4.70;;;4.30;;
59876;SDS011;45749;51.140;17.184;2023-06-19T10:40:45;5.30;;;4.40;;
59876;SDS011;45749;51.140;17.184;2023-06-19T10:43:32;7.90;;;4.97;;
59876;SDS011;45749;51.140;17.184;2023-06-19T10:45:57;7.72;;;4.97;;
59876;SDS011;45749;51.140;17.184;2023-06-19T10:48:24;4.95;;;4.53;;
59876;SDS011;45749;51.140;17.184;2023-06-19T10:50:50;4.75;;;4.35;;
59876;SDS011;45749;51.140;17.184;2023-06-19T10:53:23;4.55;;;4.15;;
59876;SDS011;45749;51.140;17.184;2023-06-19T10:55:54;6.28;;;4.85;;
59876;SDS011;45749;51.140;17.184;2023-06-19T10:58:23;5.90;;;5.30;;
59876;SDS011;45749;51.140;17.184;2023-06-19T11:00:49;4.72;;;4.28;;
59876;SDS011;45749;51.140;17.184;2023-06-19T11:03:14;4.57;;;4.17;;
59876;SDS011;45749;51.140;17.184;2023-06-19T11:05:43;4.32;;;3.92;;
59876;SDS011;45749;51.140;17.184;2023-06-19T11:08:09;4.38;;;3.97;;
59876;SDS011;45749;51.140;17.184;2023-06-19T11:10:35;7.88;;;4.15;;
59876;SDS011;45749;51.140;17.184;2023-06-19T11:13:00;5.00;;;4.38;;
59876;SDS011;45749;51.140;17.184;2023-06-19T11:15:43;4.23;;;3.83;;
59876;SDS011;45749;51.140;17.184;2023-06-19T11:18:09;4.13;;;3.78;;
59876;SDS011;45749;51.140;17.184;2023-06-19T11:23:10;5.30;;;4.13;;
59876;SDS011;45749;51.140;17.184;2023-06-19T11:25:36;4.35;;;3.95;;
59876;SDS011;45749;51.140;17.184;2023-06-19T11:28:03;4.78;;;4.38;;
59876;SDS011;45749;51.140;17.184;2023-06-19T11:30:38;3.88;;;3.53;;
59876;SDS011;45749;51.140;17.184;2023-06-19T11:33:14;4.45;;;4.05;;
59876;SDS011;45749;51.140;17.184;2023-06-19T11:35:41;4.00;;;3.60;;
59876;SDS011;45749;51.140;17.184;2023-06-19T11:38:15;4.03;;;3.63;;
59876;SDS011;45749;51.140;17.184;2023-06-19T11:40:43;4.75;;;4.35;;
59876;SDS011;45749;51.140;17.184;2023-06-19T11:43:08;5.07;;;3.60;;
59876;SDS011;45749;51.140;17.184;2023-06-19T11:45:43;4.87;;;3.90;;
59876;SDS011;45749;51.140;17.184;2023-06-19T11:48:10;4.38;;;3.85;;
59876;SDS011;45749;51.140;17.184;2023-06-19T11:50:36;4.32;;;3.40;;
59876;SDS011;45749;51.140;17.184;2023-06-19T11:53:02;3.60;;;3.30;;
59876;SDS011;45749;51.140;17.184;2023-06-19T11:55:28;4.40;;;3.97;;
59876;SDS011;45749;51.140;17.184;2023-06-19T11:57:53;3.92;;;3.60;;
59876;SDS011;45749;51.140;17.184;2023-06-19T12:00:18;3.75;;;3.45;;
59876;SDS011;45749;51.140;17.184;2023-06-19T12:02:44;5.10;;;3.73;;
59876;SDS011;45749;51.140;17.184;2023-06-19T12:05:10;5.72;;;3.70;;
59876;SDS011;45749;51.140;17.184;2023-06-19T12:07:35;4.60;;;3.83;;
59876;SDS011;45749;51.140;17.184;2023-06-19T12:10:02;4.72;;;4.20;;
59876;SDS011;45749;51.140;17.184;2023-06-19T12:12:28;4.30;;;3.90;;
59876;SDS011;45749;51.140;17.184;2023-06-19T12:14:54;4.15;;;3.75;;
59876;SDS011;45749;51.140;17.184;2023-06-19T12:17:19;4.20;;;3.80;;
59876;SDS011;45749;51.140;17.184;2023-06-19T12:19:44;6.73;;;4.27;;
59876;SDS011;45749;51.140;17.184;2023-06-19T12:22:13;3.80;;;3.40;;
59876;SDS011;45749;51.140;17.184;2023-06-19T12:24:39;7.80;;;4.43;;
59876;SDS011;45749;51.140;17.184;2023-06-19T12:27:04;5.35;;;4.18;;
59876;SDS011;45749;51.140;17.184;2023-06-19T12:29:30;4.32;;;3.92;;
59876;SDS011;45749;51.140;17.184;2023-06-19T12:32:02;4.07;;;3.67;;
59876;SDS011;45749;51.140;17.184;2023-06-19T12:34:28;6.57;;;4.78;;
59876;SDS011;45749;51.140;17.184;2023-06-19T12:36:53;4.80;;;4.30;;
59876;SDS011;45749;51.140;17.184;2023-06-19T12:39:19;5.07;;;4.30;;
59876;SDS011;45749;51.140;17.184;2023-06-19T12:41:45;3.95;;;3.55;;
59876;SDS011;45749;51.140;17.184;2023-06-19T12:44:10;4.40;;;4.00;;
59876;SDS011;45749;51.140;17.184;2023-06-19T12:46:35;4.40;;;4.00;;
59876;SDS011;45749;51.140;17.184;2023-06-19T12:49:01;6.38;;;4.85;;
59876;SDS011;45749;51.140;17.184;2023-06-19T12:51:26;4.57;;;4.17;;
59876;SDS011;45749;51.140;17.184;2023-06-19T12:53:51;4.47;;;4.07;;
59876;SDS011;45749;51.140;17.184;2023-06-19T12:56:17;5.30;;;4.33;;
59876;SDS011;45749;51.140;17.184;2023-06-19T12:58:42;5.70;;;4.43;;
59876;SDS011;45749;51.140;17.184;2023-06-19T13:01:07;4.80;;;4.30;;
59876;SDS011;45749;51.140;17.184;2023-06-19T13:03:32;4.22;;;3.67;;
59876;SDS011;45749;51.140;17.184;2023-06-19T13:05:58;6.05;;;4.22;;
59876;SDS011;45749;51.140;17.184;2023-06-19T13:08:23;6.22;;;4.13;;
59876;SDS011;45749;51.140;17.184;2023-06-19T13:10:49;5.18;;;4.22;;
59876;SDS011;45749;51.140;17.184;2023-06-19T13:13:14;6.22;;;5.15;;
59876;SDS011;45749;51.140;17.184;2023-06-19T13:15:39;4.67;;;3.80;;
59876;SDS011;45749;51.140;17.184;2023-06-19T13:18:05;4.45;;;4.05;;
59876;SDS011;45749;51.140;17.184;2023-06-19T13:20:30;4.78;;;3.70;;
59876;SDS011;45749;51.140;17.184;2023-06-19T13:22:56;5.80;;;4.22;;
59876;SDS011;45749;51.140;17.184;2023-06-19T13:25:22;4.28;;;3.90;;
59876;SDS011;45749;51.140;17.184;2023-06-19T13:27:47;4.25;;;3.88;;
59876;SDS011;45749;51.140;17.184;2023-06-19T13:30:13;4.23;;;3.83;;
59876;SDS011;45749;51.140;17.184;2023-06-19T13:32:38;4.97;;;3.88;;
59876;SDS011;45749;51.140;17.184;2023-06-19T13:35:07;4.63;;;4.20;;
59876;SDS011;45749;51.140;17.184;2023-06-19T13:37:33;5.03;;;3.45;;
59876;SDS011;45749;51.140;17.184;2023-06-19T13:39:59;6.22;;;4.38;;
59876;SDS011;45749;51.140;17.184;2023-06-19T13:42:25;5.15;;;3.38;;
59876;SDS011;45749;51.140;17.184;2023-06-19T13:44:51;5.47;;;4.10;;
59876;SDS011;45749;51.140;17.184;2023-06-19T13:47:16;4.20;;;3.80;;
59876;SDS011;45749;51.140;17.184;2023-06-19T13:49:42;3.75;;;3.30;;
59876;SDS011;45749;51.140;17.184;2023-06-19T13:52:07;5.00;;;4.53;;
59876;SDS011;45749;51.140;17.184;2023-06-19T13:54:32;4.73;;;3.97;;
59876;SDS011;45749;51.140;17.184;2023-06-19T13:56:58;5.53;;;3.90;;
59876;SDS011;45749;51.140;17.184;2023-06-19T13:59:24;4.18;;;3.80;;
59876;SDS011;45749;51.140;17.184;2023-06-19T14:01:49;6.23;;;4.47;;
59876;SDS011;45749;51.140;17.184;2023-06-19T14:04:15;7.10;;;4.38;;
59876;SDS011;45749;51.140;17.184;2023-06-19T14:06:40;5.35;;;4.22;;
59876;SDS011;45749;51.140;17.184;2023-06-19T14:09:07;6.65;;;4.57;;
59876;SDS011;45749;51.140;17.184;2023-06-19T14:11:33;6.32;;;4.80;;
59876;SDS011;45749;51.140;17.184;2023-06-19T14:13:58;5.03;;;4.20;;
59876;SDS011;45749;51.140;17.184;2023-06-19T14:16:23;7.90;;;4.17;;
59876;SDS011;45749;51.140;17.184;2023-06-19T14:18:49;4.50;;;4.10;;
59876;SDS011;45749;51.140;17.184;2023-06-19T14:21:14;5.55;;;4.85;;
59876;SDS011;45749;51.140;17.184;2023-06-19T14:23:39;5.13;;;3.88;;